sensor_id;sensor_type;location;lat;lon;timestamp;P1;durP1;ratioP1;P2;durP2;ratioP2
12635;SDS011;6383;50.830;7.210;2023-02-26T00:01:39;14.60;;;5.82;;
12635;SDS011;6383;50.830;7.210;2023-02-26T00:04:08;14.13;;;5.65;;
12635;SDS011;6383;50.830;7.210;2023-02-26T00:06:37;13.93;;;5.90;;
12635;SDS011;6383;50.830;7.210;2023-02-26T00:09:21;15.25;;;5.53;;
12635;SDS011;6383;50.830;7.210;2023-02-26T00:11:50;15.38;;;6.35;;
12635;SDS011;6383;50.830;7.210;2023-02-26T00:14:18;19.88;;;7.47;;
12635;SDS011;6383;50.830;7.210;2023-02-26T00:16:49;10.75;;;6.82;;
12635;SDS011;6383;50.830;7.210;2023-02-26T00:19:24;17.05;;;7.60;;
12635;SDS011;6383;50.830;7.210;2023-02-26T00:21:52;14.48;;;6.03;;
12635;SDS011;6383;50.830;7.210;2023-02-26T00:24:21;12.25;;;5.25;;
12635;SDS011;6383;50.830;7.210;2023-02-26T00:26:50;15.00;;;6.10;;
12635;SDS011;6383;50.830;7.210;2023-02-26T00:29:18;16.85;;;6.57;;
12635;SDS011;6383;50.830;7.210;2023-02-26T00:31:46;12.68;;;6.93;;
12635;SDS011;6383;50.830;7.210;2023-02-26T00:34:13;13.77;;;6.95;;
12635;SDS011;6383;50.830;7.210;2023-02-26T00:36:43;16.83;;;6.85;;
12635;SDS011;6383;50.830;7.210;2023-02-26T00:39:19;11.23;;;7.43;;
12635;SDS011;6383;50.830;7.210;2023-02-26T00:41:57;16.63;;;6.30;;
12635;SDS011;6383;50.830;7.210;2023-02-26T00:44:25;19.95;;;8.35;;
12635;SDS011;6383;50.830;7.210;2023-02-26T00:46:57;13.15;;;6.28;;
12635;SDS011;6383;50.830;7.210;2023-02-26T00:49:37;13.35;;;6.45;;
12635;SDS011;6383;50.830;7.210;2023-02-26T00:52:18;12.45;;;6.70;;
12635;SDS011;6383;50.830;7.210;2023-02-26T00:54:54;14.18;;;6.63;;
12635;SDS011;6383;50.830;7.210;2023-02-26T00:57:22;17.27;;;7.78;;
12635;SDS011;6383;50.830;7.210;2023-02-26T00:59:50;20.88;;;8.73;;
12635;SDS011;6383;50.830;7.210;2023-02-26T01:02:18;19.50;;;9.02;;
12635;SDS011;6383;50.830;7.210;2023-02-26T01:04:46;19.33;;;8.82;;
12635;SDS011;6383;50.830;7.210;2023-02-26T01:07:14;28.92;;;15.35;;
12635;SDS011;6383;50.830;7.210;2023-02-26T01:09:47;27.50;;;12.90;;
12635;SDS011;6383;50.830;7.210;2023-02-26T01:12:16;15.05;;;7.78;;
12635;SDS011;6383;50.830;7.210;2023-02-26T01:14:45;8.43;;;4.55;;
12635;SDS011;6383;50.830;7.210;2023-02-26T01:17:13;14.40;;;5.32;;
12635;SDS011;6383;50.830;7.210;2023-02-26T01:19:46;11.68;;;5.35;;
12635;SDS011;6383;50.830;7.210;2023-02-26T01:22:20;15.32;;;5.57;;
12635;SDS011;6383;50.830;7.210;2023-02-26T01:24:55;12.05;;;5.20;;
12635;SDS011;6383;50.830;7.210;2023-02-26T01:27:30;10.55;;;5.95;;
12635;SDS011;6383;50.830;7.210;2023-02-26T01:29:58;14.20;;;5.38;;
12635;SDS011;6383;50.830;7.210;2023-02-26T01:32:28;8.07;;;4.95;;
12635;SDS011;6383;50.830;7.210;2023-02-26T01:35:06;14.63;;;7.43;;
12635;SDS011;6383;50.830;7.210;2023-02-26T01:37:43;14.13;;;6.53;;
12635;SDS011;6383;50.830;7.210;2023-02-26T01:43:16;13.55;;;4.78;;
12635;SDS011;6383;50.830;7.210;2023-02-26T01:45:53;15.48;;;5.30;;
12635;SDS011;6383;50.830;7.210;2023-02-26T01:48:29;14.25;;;8.10;;
12635;SDS011;6383;50.830;7.210;2023-02-26T01:51:04;17.67;;;7.78;;
12635;SDS011;6383;50.830;7.210;2023-02-26T01:53:32;18.95;;;6.95;;
12635;SDS011;6383;50.830;7.210;2023-02-26T01:56:02;13.63;;;6.00;;
12635;SDS011;6383;50.830;7.210;2023-02-26T01:58:38;16.08;;;5.18;;
12635;SDS011;6383;50.830;7.210;2023-02-26T02:01:06;9.27;;;4.30;;
12635;SDS011;6383;50.830;7.210;2023-02-26T02:03:36;10.98;;;4.60;;
12635;SDS011;6383;50.830;7.210;2023-02-26T02:06:07;7.97;;;3.47;;
12635;SDS011;6383;50.830;7.210;2023-02-26T02:08:36;9.07;;;3.97;;
12635;SDS011;6383;50.830;7.210;2023-02-26T02:11:06;14.45;;;5.53;;
12635;SDS011;6383;50.830;7.210;2023-02-26T02:13:40;17.55;;;5.70;;
12635;SDS011;6383;50.830;7.210;2023-02-26T02:16:20;8.55;;;4.90;;
12635;SDS011;6383;50.830;7.210;2023-02-26T02:18:56;7.57;;;4.20;;
12635;SDS011;6383;50.830;7.210;2023-02-26T02:21:40;10.27;;;3.53;;
12635;SDS011;6383;50.830;7.210;2023-02-26T02:24:23;8.75;;;3.90;;
12635;SDS011;6383;50.830;7.210;2023-02-26T02:27:03;8.77;;;4.35;;
12635;SDS011;6383;50.830;7.210;2023-02-26T02:29:52;7.80;;;3.00;;
12635;SDS011;6383;50.830;7.210;2023-02-26T02:32:33;3.45;;;2.90;;
12635;SDS011;6383;50.830;7.210;2023-02-26T02:35:08;7.30;;;3.20;;
12635;SDS011;6383;50.830;7.210;2023-02-26T02:40:13;7.75;;;2.92;;
12635;SDS011;6383;50.830;7.210;2023-02-26T02:42:48;14.00;;;3.47;;
12635;SDS011;6383;50.830;7.210;2023-02-26T02:45:22;10.45;;;3.72;;
12635;SDS011;6383;50.830;7.210;2023-02-26T02:47:58;11.18;;;4.20;;
12635;SDS011;6383;50.830;7.210;2023-02-26T02:50:32;8.80;;;3.70;;
12635;SDS011;6383;50.830;7.210;2023-02-26T02:53:07;16.03;;;4.43;;
12635;SDS011;6383;50.830;7.210;2023-02-26T02:55:42;8.65;;;4.10;;
12635;SDS011;6383;50.830;7.210;2023-02-26T02:58:16;9.20;;;3.78;;
12635;SDS011;6383;50.830;7.210;2023-02-26T03:00:48;5.40;;;3.80;;
12635;SDS011;6383;50.830;7.210;2023-02-26T03:03:23;6.78;;;3.78;;
12635;SDS011;6383;50.830;7.210;2023-02-26T03:05:58;6.18;;;3.28;;
12635;SDS011;6383;50.830;7.210;2023-02-26T03:08:27;6.25;;;3.20;;
12635;SDS011;6383;50.830;7.210;2023-02-26T03:10:58;5.85;;;3.58;;
12635;SDS011;6383;50.830;7.210;2023-02-26T03:13:26;4.55;;;3.45;;
12635;SDS011;6383;50.830;7.210;2023-02-26T03:15:58;8.35;;;3.35;;
12635;SDS011;6383;50.830;7.210;2023-02-26T03:18:44;5.07;;;2.50;;
12635;SDS011;6383;50.830;7.210;2023-02-26T03:21:22;4.00;;;2.78;;
12635;SDS011;6383;50.830;7.210;2023-02-26T03:24:00;6.15;;;3.20;;
12635;SDS011;6383;50.830;7.210;2023-02-26T03:26:37;10.65;;;3.03;;
12635;SDS011;6383;50.830;7.210;2023-02-26T03:29:12;7.40;;;3.03;;
12635;SDS011;6383;50.830;7.210;2023-02-26T03:31:48;3.90;;;2.67;;
12635;SDS011;6383;50.830;7.210;2023-02-26T03:34:23;6.65;;;3.20;;
12635;SDS011;6383;50.830;7.210;2023-02-26T03:36:55;3.10;;;2.70;;
12635;SDS011;6383;50.830;7.210;2023-02-26T03:39:27;3.85;;;2.47;;
12635;SDS011;6383;50.830;7.210;2023-02-26T03:41:59;5.53;;;2.83;;
12635;SDS011;6383;50.830;7.210;2023-02-26T03:44:33;4.05;;;2.75;;
12635;SDS011;6383;50.830;7.210;2023-02-26T03:47:07;6.93;;;2.88;;
12635;SDS011;6383;50.830;7.210;2023-02-26T03:49:40;5.28;;;2.88;;
12635;SDS011;6383;50.830;7.210;2023-02-26T03:52:12;13.40;;;4.45;;
12635;SDS011;6383;50.830;7.210;2023-02-26T03:54:44;4.03;;;2.75;;
12635;SDS011;6383;50.830;7.210;2023-02-26T03:57:19;6.38;;;3.00;;
12635;SDS011;6383;50.830;7.210;2023-02-26T03:59:48;6.88;;;2.60;;
12635;SDS011;6383;50.830;7.210;2023-02-26T04:02:17;5.53;;;2.38;;
12635;SDS011;6383;50.830;7.210;2023-02-26T04:04:51;8.30;;;3.58;;
12635;SDS011;6383;50.830;7.210;2023-02-26T04:07:23;7.10;;;2.80;;
12635;SDS011;6383;50.830;7.210;2023-02-26T04:09:53;5.10;;;2.80;;
12635;SDS011;6383;50.830;7.210;2023-02-26T04:12:21;4.38;;;2.08;;
12635;SDS011;6383;50.830;7.210;2023-02-26T04:14:51;8.23;;;2.40;;
12635;SDS011;6383;50.830;7.210;2023-02-26T04:17:19;7.45;;;2.47;;
12635;SDS011;6383;50.830;7.210;2023-02-26T04:19:47;6.18;;;2.30;;
12635;SDS011;6383;50.830;7.210;2023-02-26T04:22:16;5.95;;;2.38;;
12635;SDS011;6383;50.830;7.210;2023-02-26T04:24:45;4.80;;;2.60;;
12635;SDS011;6383;50.830;7.210;2023-02-26T04:27:13;9.38;;;2.95;;
12635;SDS011;6383;50.830;7.210;2023-02-26T04:29:41;7.93;;;2.65;;
12635;SDS011;6383;50.830;7.210;2023-02-26T04:32:09;7.65;;;2.65;;
12635;SDS011;6383;50.830;7.210;2023-02-26T04:34:37;8.00;;;2.75;;
12635;SDS011;6383;50.830;7.210;2023-02-26T04:37:05;5.07;;;2.40;;
12635;SDS011;6383;50.830;7.210;2023-02-26T04:39:35;4.10;;;2.60;;
12635;SDS011;6383;50.830;7.210;2023-02-26T04:42:03;6.18;;;2.50;;
12635;SDS011;6383;50.830;7.210;2023-02-26T04:44:32;5.88;;;2.90;;
12635;SDS011;6383;50.830;7.210;2023-02-26T04:46:59;5.68;;;2.88;;
12635;SDS011;6383;50.830;7.210;2023-02-26T04:49:27;8.95;;;2.28;;
12635;SDS011;6383;50.830;7.210;2023-02-26T04:51:56;4.53;;;2.47;;
12635;SDS011;6383;50.830;7.210;2023-02-26T04:54:24;4.43;;;2.83;;
12635;SDS011;6383;50.830;7.210;2023-02-26T04:56:55;8.60;;;2.38;;
12635;SDS011;6383;50.830;7.210;2023-02-26T04:59:23;4.55;;;2.42;;
12635;SDS011;6383;50.830;7.210;2023-02-26T05:01:53;3.90;;;2.72;;
12635;SDS011;6383;50.830;7.210;2023-02-26T05:04:22;4.47;;;2.22;;
12635;SDS011;6383;50.830;7.210;2023-02-26T05:06:51;5.80;;;2.92;;
12635;SDS011;6383;50.830;7.210;2023-02-26T05:09:20;8.50;;;3.03;;
12635;SDS011;6383;50.830;7.210;2023-02-26T05:11:47;19.30;;;4.72;;
12635;SDS011;6383;50.830;7.210;2023-02-26T05:14:18;5.15;;;2.42;;
12635;SDS011;6383;50.830;7.210;2023-02-26T05:16:46;4.78;;;2.55;;
12635;SDS011;6383;50.830;7.210;2023-02-26T05:19:15;10.05;;;2.92;;
12635;SDS011;6383;50.830;7.210;2023-02-26T05:21:43;6.25;;;2.17;;
12635;SDS011;6383;50.830;7.210;2023-02-26T05:24:12;6.15;;;2.80;;
12635;SDS011;6383;50.830;7.210;2023-02-26T05:26:40;3.97;;;2.20;;
12635;SDS011;6383;50.830;7.210;2023-02-26T05:29:09;5.00;;;2.20;;
12635;SDS011;6383;50.830;7.210;2023-02-26T05:31:38;5.90;;;2.90;;
12635;SDS011;6383;50.830;7.210;2023-02-26T05:34:07;4.72;;;2.85;;
12635;SDS011;6383;50.830;7.210;2023-02-26T05:36:36;3.40;;;2.10;;
12635;SDS011;6383;50.830;7.210;2023-02-26T05:39:04;6.57;;;2.50;;
12635;SDS011;6383;50.830;7.210;2023-02-26T05:41:31;5.95;;;2.20;;
12635;SDS011;6383;50.830;7.210;2023-02-26T05:43:59;5.20;;;2.72;;
12635;SDS011;6383;50.830;7.210;2023-02-26T05:46:29;6.40;;;2.85;;
12635;SDS011;6383;50.830;7.210;2023-02-26T05:48:57;6.22;;;3.17;;
12635;SDS011;6383;50.830;7.210;2023-02-26T05:51:25;6.65;;;3.55;;
12635;SDS011;6383;50.830;7.210;2023-02-26T05:53:53;5.43;;;2.65;;
12635;SDS011;6383;50.830;7.210;2023-02-26T05:56:21;5.88;;;2.50;;
12635;SDS011;6383;50.830;7.210;2023-02-26T05:58:50;5.22;;;2.35;;
12635;SDS011;6383;50.830;7.210;2023-02-26T06:01:19;9.10;;;3.72;;
12635;SDS011;6383;50.830;7.210;2023-02-26T06:03:47;10.98;;;3.08;;
12635;SDS011;6383;50.830;7.210;2023-02-26T06:06:16;4.70;;;2.67;;
12635;SDS011;6383;50.830;7.210;2023-02-26T06:08:44;4.68;;;2.47;;
12635;SDS011;6383;50.830;7.210;2023-02-26T06:11:13;8.02;;;2.55;;
12635;SDS011;6383;50.830;7.210;2023-02-26T06:13:42;5.32;;;2.28;;
12635;SDS011;6383;50.830;7.210;2023-02-26T06:16:11;5.60;;;2.17;;
12635;SDS011;6383;50.830;7.210;2023-02-26T06:18:39;5.32;;;2.83;;
12635;SDS011;6383;50.830;7.210;2023-02-26T06:21:08;7.57;;;2.70;;
12635;SDS011;6383;50.830;7.210;2023-02-26T06:23:38;4.60;;;2.78;;
12635;SDS011;6383;50.830;7.210;2023-02-26T06:26:06;5.63;;;2.20;;
12635;SDS011;6383;50.830;7.210;2023-02-26T06:28:34;5.80;;;2.20;;
12635;SDS011;6383;50.830;7.210;2023-02-26T06:31:03;6.15;;;2.22;;
12635;SDS011;6383;50.830;7.210;2023-02-26T06:33:31;7.68;;;3.05;;
12635;SDS011;6383;50.830;7.210;2023-02-26T06:35:58;3.85;;;2.30;;
12635;SDS011;6383;50.830;7.210;2023-02-26T06:38:28;3.42;;;1.52;;
12635;SDS011;6383;50.830;7.210;2023-02-26T06:40:58;2.28;;;2.00;;
12635;SDS011;6383;50.830;7.210;2023-02-26T06:43:27;4.78;;;2.35;;
12635;SDS011;6383;50.830;7.210;2023-02-26T06:45:56;8.00;;;2.50;;
12635;SDS011;6383;50.830;7.210;2023-02-26T06:48:25;5.00;;;1.83;;
12635;SDS011;6383;50.830;7.210;2023-02-26T06:50:54;7.30;;;3.13;;
12635;SDS011;6383;50.830;7.210;2023-02-26T06:53:22;4.45;;;3.03;;
12635;SDS011;6383;50.830;7.210;2023-02-26T06:55:52;5.90;;;2.47;;
12635;SDS011;6383;50.830;7.210;2023-02-26T06:58:22;4.22;;;2.50;;
12635;SDS011;6383;50.830;7.210;2023-02-26T07:00:50;11.13;;;2.72;;
12635;SDS011;6383;50.830;7.210;2023-02-26T07:03:19;3.97;;;2.05;;
12635;SDS011;6383;50.830;7.210;2023-02-26T07:05:48;5.70;;;2.38;;
12635;SDS011;6383;50.830;7.210;2023-02-26T07:08:18;5.43;;;2.75;;
12635;SDS011;6383;50.830;7.210;2023-02-26T07:10:47;4.40;;;2.40;;
12635;SDS011;6383;50.830;7.210;2023-02-26T07:13:15;8.13;;;2.55;;
12635;SDS011;6383;50.830;7.210;2023-02-26T07:15:44;5.97;;;2.20;;
12635;SDS011;6383;50.830;7.210;2023-02-26T07:18:12;8.68;;;3.13;;
12635;SDS011;6383;50.830;7.210;2023-02-26T07:20:40;5.75;;;2.83;;
12635;SDS011;6383;50.830;7.210;2023-02-26T07:23:07;3.38;;;2.70;;
12635;SDS011;6383;50.830;7.210;2023-02-26T07:25:36;10.48;;;3.95;;
12635;SDS011;6383;50.830;7.210;2023-02-26T07:28:04;4.95;;;2.60;;
12635;SDS011;6383;50.830;7.210;2023-02-26T07:30:31;8.98;;;3.20;;
12635;SDS011;6383;50.830;7.210;2023-02-26T07:33:00;26.95;;;19.30;;
12635;SDS011;6383;50.830;7.210;2023-02-26T07:35:28;35.47;;;16.65;;
12635;SDS011;6383;50.830;7.210;2023-02-26T07:37:57;69.47;;;38.65;;
12635;SDS011;6383;50.830;7.210;2023-02-26T07:40:25;41.83;;;25.88;;
12635;SDS011;6383;50.830;7.210;2023-02-26T07:42:54;48.00;;;29.58;;
12635;SDS011;6383;50.830;7.210;2023-02-26T07:45:22;27.63;;;18.00;;
12635;SDS011;6383;50.830;7.210;2023-02-26T07:47:51;25.02;;;15.32;;
12635;SDS011;6383;50.830;7.210;2023-02-26T07:50:21;25.90;;;15.82;;
12635;SDS011;6383;50.830;7.210;2023-02-26T07:52:50;8.82;;;5.05;;
12635;SDS011;6383;50.830;7.210;2023-02-26T07:55:19;5.63;;;3.50;;
12635;SDS011;6383;50.830;7.210;2023-02-26T07:57:46;3.80;;;3.05;;
12635;SDS011;6383;50.830;7.210;2023-02-26T08:00:15;9.20;;;3.60;;
12635;SDS011;6383;50.830;7.210;2023-02-26T08:02:45;3.58;;;2.60;;
12635;SDS011;6383;50.830;7.210;2023-02-26T08:05:13;5.97;;;2.92;;
12635;SDS011;6383;50.830;7.210;2023-02-26T08:07:43;3.03;;;2.75;;
12635;SDS011;6383;50.830;7.210;2023-02-26T08:10:11;6.10;;;2.30;;
12635;SDS011;6383;50.830;7.210;2023-02-26T08:12:38;5.85;;;2.70;;
12635;SDS011;6383;50.830;7.210;2023-02-26T08:15:07;6.18;;;2.58;;
12635;SDS011;6383;50.830;7.210;2023-02-26T08:17:36;3.78;;;2.38;;
12635;SDS011;6383;50.830;7.210;2023-02-26T08:20:04;4.10;;;2.17;;
12635;SDS011;6383;50.830;7.210;2023-02-26T08:22:34;4.00;;;2.17;;
12635;SDS011;6383;50.830;7.210;2023-02-26T08:25:04;4.15;;;2.28;;
12635;SDS011;6383;50.830;7.210;2023-02-26T08:27:32;5.95;;;1.90;;
12635;SDS011;6383;50.830;7.210;2023-02-26T08:30:01;2.63;;;2.28;;
12635;SDS011;6383;50.830;7.210;2023-02-26T08:32:28;4.80;;;2.20;;
12635;SDS011;6383;50.830;7.210;2023-02-26T08:34:56;4.78;;;2.28;;
12635;SDS011;6383;50.830;7.210;2023-02-26T08:37:25;4.53;;;2.75;;
12635;SDS011;6383;50.830;7.210;2023-02-26T08:39:53;7.32;;;3.65;;
12635;SDS011;6383;50.830;7.210;2023-02-26T08:42:22;2.45;;;2.22;;
12635;SDS011;6383;50.830;7.210;2023-02-26T08:44:50;4.45;;;2.38;;
12635;SDS011;6383;50.830;7.210;2023-02-26T08:47:19;3.95;;;1.95;;
12635;SDS011;6383;50.830;7.210;2023-02-26T08:49:47;5.15;;;1.75;;
12635;SDS011;6383;50.830;7.210;2023-02-26T08:52:14;2.92;;;1.60;;
12635;SDS011;6383;50.830;7.210;2023-02-26T08:54:44;4.55;;;1.92;;
12635;SDS011;6383;50.830;7.210;2023-02-26T08:57:13;7.00;;;2.10;;
12635;SDS011;6383;50.830;7.210;2023-02-26T08:59:43;6.75;;;1.90;;
12635;SDS011;6383;50.830;7.210;2023-02-26T09:02:11;5.57;;;1.92;;
12635;SDS011;6383;50.830;7.210;2023-02-26T09:04:39;6.88;;;2.28;;
12635;SDS011;6383;50.830;7.210;2023-02-26T09:07:08;2.45;;;1.65;;
12635;SDS011;6383;50.830;7.210;2023-02-26T09:09:37;3.78;;;1.77;;
12635;SDS011;6383;50.830;7.210;2023-02-26T09:12:06;6.43;;;1.80;;
12635;SDS011;6383;50.830;7.210;2023-02-26T09:14:33;2.55;;;1.50;;
12635;SDS011;6383;50.830;7.210;2023-02-26T09:17:03;5.35;;;1.90;;
12635;SDS011;6383;50.830;7.210;2023-02-26T09:19:32;3.53;;;2.03;;
12635;SDS011;6383;50.830;7.210;2023-02-26T09:22:00;4.40;;;1.77;;
12635;SDS011;6383;50.830;7.210;2023-02-26T09:24:28;2.22;;;1.58;;
12635;SDS011;6383;50.830;7.210;2023-02-26T09:26:57;3.78;;;1.38;;
12635;SDS011;6383;50.830;7.210;2023-02-26T09:29:25;6.18;;;1.63;;
12635;SDS011;6383;50.830;7.210;2023-02-26T09:31:53;10.38;;;1.77;;
12635;SDS011;6383;50.830;7.210;2023-02-26T09:34:24;4.07;;;1.55;;
12635;SDS011;6383;50.830;7.210;2023-02-26T09:36:53;3.20;;;1.48;;
12635;SDS011;6383;50.830;7.210;2023-02-26T09:39:22;7.60;;;1.67;;
12635;SDS011;6383;50.830;7.210;2023-02-26T09:41:52;6.18;;;2.58;;
12635;SDS011;6383;50.830;7.210;2023-02-26T09:44:24;3.40;;;2.20;;
12635;SDS011;6383;50.830;7.210;2023-02-26T09:46:56;1.08;;;0.98;;
12635;SDS011;6383;50.830;7.210;2023-02-26T09:49:34;7.30;;;1.73;;
12635;SDS011;6383;50.830;7.210;2023-02-26T09:52:15;4.00;;;1.20;;
12635;SDS011;6383;50.830;7.210;2023-02-26T09:54:48;4.70;;;1.50;;
12635;SDS011;6383;50.830;7.210;2023-02-26T09:57:23;2.60;;;1.67;;
12635;SDS011;6383;50.830;7.210;2023-02-26T09:59:55;5.05;;;1.40;;
12635;SDS011;6383;50.830;7.210;2023-02-26T10:02:28;4.97;;;1.40;;
12635;SDS011;6383;50.830;7.210;2023-02-26T10:05:14;5.85;;;1.70;;
12635;SDS011;6383;50.830;7.210;2023-02-26T10:07:45;1.70;;;1.50;;
12635;SDS011;6383;50.830;7.210;2023-02-26T10:10:19;2.85;;;1.35;;
12635;SDS011;6383;50.830;7.210;2023-02-26T10:12:56;2.33;;;1.38;;
12635;SDS011;6383;50.830;7.210;2023-02-26T10:15:27;4.57;;;1.27;;
12635;SDS011;6383;50.830;7.210;2023-02-26T10:18:05;3.05;;;1.40;;
12635;SDS011;6383;50.830;7.210;2023-02-26T10:20:41;3.55;;;1.15;;
12635;SDS011;6383;50.830;7.210;2023-02-26T10:23:22;3.03;;;1.45;;
12635;SDS011;6383;50.830;7.210;2023-02-26T10:25:57;1.40;;;1.08;;
12635;SDS011;6383;50.830;7.210;2023-02-26T10:28:37;3.03;;;0.80;;
12635;SDS011;6383;50.830;7.210;2023-02-26T10:31:14;2.58;;;1.15;;
12635;SDS011;6383;50.830;7.210;2023-02-26T10:33:48;5.18;;;0.85;;
12635;SDS011;6383;50.830;7.210;2023-02-26T10:36:26;2.17;;;1.00;;
12635;SDS011;6383;50.830;7.210;2023-02-26T10:38:59;1.30;;;1.00;;
12635;SDS011;6383;50.830;7.210;2023-02-26T10:41:30;2.17;;;1.15;;
12635;SDS011;6383;50.830;7.210;2023-02-26T10:44:05;1.90;;;1.20;;
12635;SDS011;6383;50.830;7.210;2023-02-26T10:46:42;1.20;;;1.08;;
12635;SDS011;6383;50.830;7.210;2023-02-26T10:49:23;1.75;;;1.20;;
12635;SDS011;6383;50.830;7.210;2023-02-26T10:52:09;4.03;;;1.20;;
12635;SDS011;6383;50.830;7.210;2023-02-26T10:54:41;1.83;;;1.23;;
12635;SDS011;6383;50.830;7.210;2023-02-26T10:57:17;1.67;;;0.90;;
12635;SDS011;6383;50.830;7.210;2023-02-26T10:59:50;3.75;;;1.10;;
12635;SDS011;6383;50.830;7.210;2023-02-26T11:02:27;1.33;;;1.23;;
12635;SDS011;6383;50.830;7.210;2023-02-26T11:05:02;2.33;;;1.20;;
12635;SDS011;6383;50.830;7.210;2023-02-26T11:07:35;3.88;;;1.13;;
12635;SDS011;6383;50.830;7.210;2023-02-26T11:10:12;3.05;;;1.30;;
12635;SDS011;6383;50.830;7.210;2023-02-26T11:12:43;2.17;;;0.82;;
12635;SDS011;6383;50.830;7.210;2023-02-26T11:15:13;3.83;;;1.45;;
12635;SDS011;6383;50.830;7.210;2023-02-26T11:17:44;2.83;;;0.93;;
12635;SDS011;6383;50.830;7.210;2023-02-26T11:20:17;2.28;;;1.60;;
12635;SDS011;6383;50.830;7.210;2023-02-26T11:22:53;1.67;;;1.42;;
12635;SDS011;6383;50.830;7.210;2023-02-26T11:25:26;3.53;;;1.85;;
12635;SDS011;6383;50.830;7.210;2023-02-26T11:27:59;15.20;;;2.35;;
12635;SDS011;6383;50.830;7.210;2023-02-26T11:30:30;1.83;;;1.73;;
12635;SDS011;6383;50.830;7.210;2023-02-26T11:33:04;4.00;;;1.60;;
12635;SDS011;6383;50.830;7.210;2023-02-26T11:35:42;1.00;;;1.00;;
12635;SDS011;6383;50.830;7.210;2023-02-26T11:38:15;4.28;;;1.10;;
12635;SDS011;6383;50.830;7.210;2023-02-26T11:40:48;3.03;;;2.17;;
12635;SDS011;6383;50.830;7.210;2023-02-26T11:45:51;8.63;;;1.38;;
12635;SDS011;6383;50.830;7.210;2023-02-26T11:48:23;2.45;;;1.50;;
12635;SDS011;6383;50.830;7.210;2023-02-26T11:53:29;1.40;;;0.65;;
12635;SDS011;6383;50.830;7.210;2023-02-26T11:56:02;1.27;;;0.70;;
12635;SDS011;6383;50.830;7.210;2023-02-26T11:58:36;2.13;;;1.08;;
12635;SDS011;6383;50.830;7.210;2023-02-26T12:01:06;1.88;;;1.20;;
12635;SDS011;6383;50.830;7.210;2023-02-26T12:03:36;1.77;;;0.93;;
12635;SDS011;6383;50.830;7.210;2023-02-26T12:06:06;2.83;;;1.08;;
12635;SDS011;6383;50.830;7.210;2023-02-26T12:08:44;0.98;;;0.90;;
12635;SDS011;6383;50.830;7.210;2023-02-26T12:11:17;1.17;;;1.10;;
12635;SDS011;6383;50.830;7.210;2023-02-26T12:14:08;3.70;;;1.23;;
12635;SDS011;6383;50.830;7.210;2023-02-26T12:16:51;1.65;;;1.30;;
12635;SDS011;6383;50.830;7.210;2023-02-26T12:19:33;3.00;;;1.70;;
12635;SDS011;6383;50.830;7.210;2023-02-26T12:22:13;3.75;;;2.03;;
12635;SDS011;6383;50.830;7.210;2023-02-26T12:25:11;1.17;;;1.00;;
12635;SDS011;6383;50.830;7.210;2023-02-26T12:27:59;2.35;;;1.15;;
12635;SDS011;6383;50.830;7.210;2023-02-26T12:31:02;2.30;;;1.40;;
12635;SDS011;6383;50.830;7.210;2023-02-26T12:36:19;2.38;;;1.10;;
12635;SDS011;6383;50.830;7.210;2023-02-26T12:38:58;0.98;;;0.88;;
12635;SDS011;6383;50.830;7.210;2023-02-26T12:41:43;1.17;;;0.98;;
12635;SDS011;6383;50.830;7.210;2023-02-26T12:44:28;2.47;;;0.60;;
12635;SDS011;6383;50.830;7.210;2023-02-26T12:47:18;1.63;;;0.90;;
12635;SDS011;6383;50.830;7.210;2023-02-26T12:50:05;1.35;;;0.93;;
12635;SDS011;6383;50.830;7.210;2023-02-26T12:52:57;2.58;;;1.20;;
12635;SDS011;6383;50.830;7.210;2023-02-26T12:55:43;1.63;;;0.90;;
12635;SDS011;6383;50.830;7.210;2023-02-26T12:58:36;1.23;;;0.80;;
12635;SDS011;6383;50.830;7.210;2023-02-26T13:01:26;2.00;;;1.38;;
12635;SDS011;6383;50.830;7.210;2023-02-26T13:04:17;1.67;;;0.90;;
12635;SDS011;6383;50.830;7.210;2023-02-26T13:07:11;1.42;;;0.95;;
12635;SDS011;6383;50.830;7.210;2023-02-26T13:09:52;2.42;;;1.20;;
12635;SDS011;6383;50.830;7.210;2023-02-26T13:12:31;1.63;;;0.95;;
12635;SDS011;6383;50.830;7.210;2023-02-26T13:15:13;2.28;;;0.57;;
12635;SDS011;6383;50.830;7.210;2023-02-26T13:17:55;1.13;;;0.93;;
12635;SDS011;6383;50.830;7.210;2023-02-26T13:20:30;3.05;;;1.00;;
12635;SDS011;6383;50.830;7.210;2023-02-26T13:23:03;2.10;;;1.08;;
12635;SDS011;6383;50.830;7.210;2023-02-26T13:25:40;2.97;;;0.80;;
12635;SDS011;6383;50.830;7.210;2023-02-26T13:28:19;0.90;;;0.80;;
12635;SDS011;6383;50.830;7.210;2023-02-26T13:30:58;1.10;;;0.85;;
12635;SDS011;6383;50.830;7.210;2023-02-26T13:33:31;1.23;;;1.13;;
12635;SDS011;6383;50.830;7.210;2023-02-26T13:36:02;1.02;;;0.90;;
12635;SDS011;6383;50.830;7.210;2023-02-26T13:38:41;1.75;;;0.68;;
12635;SDS011;6383;50.830;7.210;2023-02-26T13:41:18;2.25;;;0.60;;
12635;SDS011;6383;50.830;7.210;2023-02-26T13:43:59;2.33;;;0.95;;
12635;SDS011;6383;50.830;7.210;2023-02-26T13:46:45;2.03;;;0.98;;
12635;SDS011;6383;50.830;7.210;2023-02-26T13:49:22;1.90;;;0.90;;
12635;SDS011;6383;50.830;7.210;2023-02-26T13:51:56;0.88;;;0.60;;
12635;SDS011;6383;50.830;7.210;2023-02-26T13:54:41;1.88;;;0.77;;
12635;SDS011;6383;50.830;7.210;2023-02-26T13:57:22;1.27;;;0.80;;
12635;SDS011;6383;50.830;7.210;2023-02-26T13:59:58;1.88;;;0.90;;
12635;SDS011;6383;50.830;7.210;2023-02-26T14:02:43;3.35;;;1.15;;
12635;SDS011;6383;50.830;7.210;2023-02-26T14:05:28;1.38;;;0.98;;
12635;SDS011;6383;50.830;7.210;2023-02-26T14:08:17;2.42;;;1.05;;
12635;SDS011;6383;50.830;7.210;2023-02-26T14:10:54;1.95;;;0.77;;
12635;SDS011;6383;50.830;7.210;2023-02-26T14:13:31;1.15;;;0.73;;
12635;SDS011;6383;50.830;7.210;2023-02-26T14:16:09;1.77;;;1.05;;
12635;SDS011;6383;50.830;7.210;2023-02-26T14:18:42;2.42;;;0.88;;
12635;SDS011;6383;50.830;7.210;2023-02-26T14:24:05;3.42;;;1.15;;
12635;SDS011;6383;50.830;7.210;2023-02-26T14:26:44;3.80;;;0.80;;
12635;SDS011;6383;50.830;7.210;2023-02-26T14:29:16;2.00;;;1.10;;
12635;SDS011;6383;50.830;7.210;2023-02-26T14:32:00;3.22;;;1.08;;
12635;SDS011;6383;50.830;7.210;2023-02-26T14:34:45;1.50;;;0.90;;
12635;SDS011;6383;50.830;7.210;2023-02-26T14:37:18;1.83;;;0.63;;
12635;SDS011;6383;50.830;7.210;2023-02-26T14:39:53;1.65;;;0.90;;
12635;SDS011;6383;50.830;7.210;2023-02-26T14:42:28;1.75;;;0.95;;
12635;SDS011;6383;50.830;7.210;2023-02-26T14:45:05;0.80;;;0.80;;
12635;SDS011;6383;50.830;7.210;2023-02-26T14:47:36;1.38;;;0.73;;
12635;SDS011;6383;50.830;7.210;2023-02-26T14:50:06;1.88;;;0.80;;
12635;SDS011;6383;50.830;7.210;2023-02-26T14:52:38;2.10;;;1.42;;
12635;SDS011;6383;50.830;7.210;2023-02-26T14:55:26;1.77;;;1.23;;
12635;SDS011;6383;50.830;7.210;2023-02-26T14:58:08;0.90;;;0.73;;
12635;SDS011;6383;50.830;7.210;2023-02-26T15:00:51;2.47;;;0.90;;
12635;SDS011;6383;50.830;7.210;2023-02-26T15:03:35;3.35;;;1.10;;
12635;SDS011;6383;50.830;7.210;2023-02-26T15:06:24;1.58;;;0.60;;
12635;SDS011;6383;50.830;7.210;2023-02-26T15:09:05;0.98;;;0.70;;
12635;SDS011;6383;50.830;7.210;2023-02-26T15:14:47;2.53;;;0.80;;
12635;SDS011;6383;50.830;7.210;2023-02-26T15:17:42;1.10;;;1.00;;
12635;SDS011;6383;50.830;7.210;2023-02-26T15:20:22;2.20;;;1.20;;
12635;SDS011;6383;50.830;7.210;2023-02-26T15:23:11;1.40;;;1.08;;
12635;SDS011;6383;50.830;7.210;2023-02-26T15:26:01;1.13;;;1.02;;
12635;SDS011;6383;50.830;7.210;2023-02-26T15:28:35;1.52;;;1.10;;
12635;SDS011;6383;50.830;7.210;2023-02-26T15:31:05;3.78;;;1.10;;
12635;SDS011;6383;50.830;7.210;2023-02-26T15:33:34;2.63;;;0.90;;
12635;SDS011;6383;50.830;7.210;2023-02-26T15:36:05;3.95;;;0.70;;
12635;SDS011;6383;50.830;7.210;2023-02-26T15:38:42;1.45;;;1.13;;
12635;SDS011;6383;50.830;7.210;2023-02-26T15:41:16;3.03;;;1.00;;
12635;SDS011;6383;50.830;7.210;2023-02-26T15:43:47;2.13;;;1.33;;
12635;SDS011;6383;50.830;7.210;2023-02-26T15:46:18;3.05;;;1.33;;
12635;SDS011;6383;50.830;7.210;2023-02-26T15:48:50;3.67;;;1.55;;
12635;SDS011;6383;50.830;7.210;2023-02-26T15:51:28;4.03;;;1.58;;
12635;SDS011;6383;50.830;7.210;2023-02-26T15:53:59;3.17;;;1.80;;